sensor_id;sensor_type;location;lat;lon;timestamp;P1;durP1;ratioP1;P2;durP2;ratioP2
12601;SDS011;30282;16.436;99.370;2023-07-30T00:00:05;17.40;;;6.30;;
12601;SDS011;30282;16.436;99.370;2023-07-30T00:02:35;16.23;;;5.40;;
12601;SDS011;30282;16.436;99.370;2023-07-30T00:05:05;11.03;;;5.70;;
12601;SDS011;30282;16.436;99.370;2023-07-30T00:07:34;11.50;;;5.60;;
12601;SDS011;30282;16.436;99.370;2023-07-30T00:10:03;15.17;;;6.50;;
12601;SDS011;30282;16.436;99.370;2023-07-30T00:12:35;9.47;;;5.60;;
12601;SDS011;30282;16.436;99.370;2023-07-30T00:15:04;9.33;;;5.03;;
12601;SDS011;30282;16.436;99.370;2023-07-30T00:17:34;13.20;;;5.70;;
12601;SDS011;30282;16.436;99.370;2023-07-30T00:20:04;22.00;;;5.90;;
12601;SDS011;30282;16.436;99.370;2023-07-30T00:22:34;11.03;;;5.43;;
12601;SDS011;30282;16.436;99.370;2023-07-30T00:25:03;12.60;;;5.63;;
12601;SDS011;30282;16.436;99.370;2023-07-30T00:27:35;16.03;;;6.07;;
12601;SDS011;30282;16.436;99.370;2023-07-30T00:30:05;19.57;;;7.30;;
12601;SDS011;30282;16.436;99.370;2023-07-30T00:32:35;16.10;;;6.13;;
12601;SDS011;30282;16.436;99.370;2023-07-30T00:35:09;18.33;;;6.30;;
12601;SDS011;30282;16.436;99.370;2023-07-30T00:37:38;13.53;;;6.10;;
12601;SDS011;30282;16.436;99.370;2023-07-30T00:40:07;13.37;;;5.07;;
12601;SDS011;30282;16.436;99.370;2023-07-30T00:42:38;14.07;;;6.13;;
12601;SDS011;30282;16.436;99.370;2023-07-30T00:45:10;10.77;;;5.40;;
12601;SDS011;30282;16.436;99.370;2023-07-30T00:47:40;15.13;;;6.23;;
12601;SDS011;30282;16.436;99.370;2023-07-30T00:50:09;21.57;;;8.77;;
12601;SDS011;30282;16.436;99.370;2023-07-30T00:52:41;17.40;;;9.30;;
12601;SDS011;30282;16.436;99.370;2023-07-30T00:55:11;9.70;;;5.70;;
12601;SDS011;30282;16.436;99.370;2023-07-30T00:57:43;9.33;;;5.30;;
12601;SDS011;30282;16.436;99.370;2023-07-30T01:00:16;12.37;;;6.17;;
12601;SDS011;30282;16.436;99.370;2023-07-30T01:02:46;13.23;;;5.57;;
12601;SDS011;30282;16.436;99.370;2023-07-30T01:05:15;13.90;;;6.10;;
12601;SDS011;30282;16.436;99.370;2023-07-30T01:07:44;14.50;;;6.80;;
12601;SDS011;30282;16.436;99.370;2023-07-30T01:10:14;18.70;;;7.37;;
12601;SDS011;30282;16.436;99.370;2023-07-30T01:12:45;15.63;;;6.63;;
12601;SDS011;30282;16.436;99.370;2023-07-30T01:15:15;11.83;;;7.23;;
12601;SDS011;30282;16.436;99.370;2023-07-30T01:17:45;18.00;;;7.07;;
12601;SDS011;30282;16.436;99.370;2023-07-30T01:20:14;15.73;;;8.30;;
12601;SDS011;30282;16.436;99.370;2023-07-30T01:22:45;13.97;;;6.30;;
12601;SDS011;30282;16.436;99.370;2023-07-30T01:25:14;13.80;;;5.20;;
12601;SDS011;30282;16.436;99.370;2023-07-30T01:27:46;11.80;;;5.47;;
12601;SDS011;30282;16.436;99.370;2023-07-30T01:30:21;11.60;;;4.80;;
12601;SDS011;30282;16.436;99.370;2023-07-30T01:32:54;24.60;;;6.17;;
12601;SDS011;30282;16.436;99.370;2023-07-30T01:35:30;12.00;;;4.53;;
12601;SDS011;30282;16.436;99.370;2023-07-30T01:38:05;9.17;;;4.90;;
12601;SDS011;30282;16.436;99.370;2023-07-30T01:40:35;13.83;;;6.83;;
12601;SDS011;30282;16.436;99.370;2023-07-30T01:43:04;14.60;;;5.33;;
12601;SDS011;30282;16.436;99.370;2023-07-30T01:45:34;13.07;;;4.97;;
12601;SDS011;30282;16.436;99.370;2023-07-30T01:48:04;15.50;;;4.90;;
12601;SDS011;30282;16.436;99.370;2023-07-30T01:50:35;20.30;;;6.23;;
12601;SDS011;30282;16.436;99.370;2023-07-30T01:53:08;20.93;;;6.70;;
12601;SDS011;30282;16.436;99.370;2023-07-30T01:55:37;21.60;;;6.10;;
12601;SDS011;30282;16.436;99.370;2023-07-30T01:58:09;24.27;;;5.80;;
12601;SDS011;30282;16.436;99.370;2023-07-30T02:00:40;14.90;;;5.47;;
12601;SDS011;30282;16.436;99.370;2023-07-30T02:03:10;11.73;;;3.47;;
12601;SDS011;30282;16.436;99.370;2023-07-30T02:05:39;11.27;;;4.00;;
12601;SDS011;30282;16.436;99.370;2023-07-30T02:08:10;10.33;;;4.67;;
12601;SDS011;30282;16.436;99.370;2023-07-30T02:10:41;9.67;;;4.20;;
12601;SDS011;30282;16.436;99.370;2023-07-30T02:13:10;10.83;;;3.47;;
12601;SDS011;30282;16.436;99.370;2023-07-30T02:15:40;9.60;;;4.07;;
12601;SDS011;30282;16.436;99.370;2023-07-30T02:18:09;7.80;;;3.30;;
12601;SDS011;30282;16.436;99.370;2023-07-30T02:20:41;9.90;;;3.73;;
12601;SDS011;30282;16.436;99.370;2023-07-30T02:23:13;16.27;;;4.20;;
12601;SDS011;30282;16.436;99.370;2023-07-30T02:25:43;11.90;;;3.57;;
12601;SDS011;30282;16.436;99.370;2023-07-30T02:28:12;11.20;;;3.67;;
12601;SDS011;30282;16.436;99.370;2023-07-30T02:30:42;9.73;;;3.90;;
12601;SDS011;30282;16.436;99.370;2023-07-30T02:33:11;8.17;;;3.47;;
12601;SDS011;30282;16.436;99.370;2023-07-30T02:35:41;14.10;;;4.27;;
12601;SDS011;30282;16.436;99.370;2023-07-30T02:38:13;11.93;;;3.10;;
12601;SDS011;30282;16.436;99.370;2023-07-30T02:40:42;6.40;;;3.33;;
12601;SDS011;30282;16.436;99.370;2023-07-30T02:43:11;9.00;;;3.07;;
12601;SDS011;30282;16.436;99.370;2023-07-30T02:45:40;7.63;;;3.00;;
12601;SDS011;30282;16.436;99.370;2023-07-30T02:48:09;9.50;;;3.27;;
12601;SDS011;30282;16.436;99.370;2023-07-30T02:50:39;7.73;;;3.37;;
12601;SDS011;30282;16.436;99.370;2023-07-30T02:53:08;9.53;;;3.27;;
12601;SDS011;30282;16.436;99.370;2023-07-30T02:55:38;12.37;;;3.53;;
12601;SDS011;30282;16.436;99.370;2023-07-30T02:58:08;9.17;;;3.60;;
12601;SDS011;30282;16.436;99.370;2023-07-30T03:00:37;12.07;;;4.13;;
12601;SDS011;30282;16.436;99.370;2023-07-30T03:03:06;8.23;;;3.10;;
12601;SDS011;30282;16.436;99.370;2023-07-30T03:05:35;8.07;;;2.67;;
12601;SDS011;30282;16.436;99.370;2023-07-30T03:08:04;9.40;;;2.47;;
12601;SDS011;30282;16.436;99.370;2023-07-30T03:10:33;8.57;;;2.93;;
12601;SDS011;30282;16.436;99.370;2023-07-30T03:13:05;10.97;;;4.40;;
12601;SDS011;30282;16.436;99.370;2023-07-30T03:15:34;14.20;;;3.80;;
12601;SDS011;30282;16.436;99.370;2023-07-30T03:18:03;11.03;;;3.63;;
12601;SDS011;30282;16.436;99.370;2023-07-30T03:20:33;8.60;;;3.10;;
12601;SDS011;30282;16.436;99.370;2023-07-30T03:23:02;14.73;;;3.40;;
12601;SDS011;30282;16.436;99.370;2023-07-30T03:25:31;13.90;;;3.90;;
12601;SDS011;30282;16.436;99.370;2023-07-30T03:28:00;11.47;;;3.03;;
12601;SDS011;30282;16.436;99.370;2023-07-30T03:30:31;6.30;;;2.77;;
12601;SDS011;30282;16.436;99.370;2023-07-30T03:33:00;11.77;;;5.50;;
12601;SDS011;30282;16.436;99.370;2023-07-30T03:35:29;14.03;;;5.30;;
12601;SDS011;30282;16.436;99.370;2023-07-30T03:37:58;13.17;;;5.80;;
12601;SDS011;30282;16.436;99.370;2023-07-30T03:40:27;10.83;;;4.00;;
12601;SDS011;30282;16.436;99.370;2023-07-30T03:42:57;6.63;;;2.73;;
12601;SDS011;30282;16.436;99.370;2023-07-30T03:45:26;6.10;;;2.80;;
12601;SDS011;30282;16.436;99.370;2023-07-30T03:47:57;10.23;;;3.00;;
12601;SDS011;30282;16.436;99.370;2023-07-30T03:50:26;14.87;;;3.93;;
12601;SDS011;30282;16.436;99.370;2023-07-30T03:52:55;10.10;;;3.57;;
12601;SDS011;30282;16.436;99.370;2023-07-30T03:55:24;8.73;;;3.57;;
12601;SDS011;30282;16.436;99.370;2023-07-30T03:57:54;11.40;;;2.90;;
12601;SDS011;30282;16.436;99.370;2023-07-30T04:00:24;8.33;;;2.93;;
12601;SDS011;30282;16.436;99.370;2023-07-30T04:02:54;5.57;;;2.70;;
12601;SDS011;30282;16.436;99.370;2023-07-30T04:05:25;13.43;;;3.40;;
12601;SDS011;30282;16.436;99.370;2023-07-30T04:07:54;15.43;;;4.03;;
12601;SDS011;30282;16.436;99.370;2023-07-30T04:10:23;12.27;;;4.53;;
12601;SDS011;30282;16.436;99.370;2023-07-30T04:12:52;12.53;;;4.23;;
12601;SDS011;30282;16.436;99.370;2023-07-30T04:15:21;13.97;;;3.20;;
12601;SDS011;30282;16.436;99.370;2023-07-30T04:17:50;9.70;;;3.10;;
12601;SDS011;30282;16.436;99.370;2023-07-30T04:20:19;10.77;;;3.10;;
12601;SDS011;30282;16.436;99.370;2023-07-30T04:22:50;9.53;;;3.03;;
12601;SDS011;30282;16.436;99.370;2023-07-30T04:25:19;13.40;;;3.80;;
12601;SDS011;30282;16.436;99.370;2023-07-30T04:27:48;16.80;;;3.70;;
12601;SDS011;30282;16.436;99.370;2023-07-30T04:30:17;11.27;;;3.77;;
12601;SDS011;30282;16.436;99.370;2023-07-30T04:32:49;6.63;;;3.17;;
12601;SDS011;30282;16.436;99.370;2023-07-30T04:35:18;15.03;;;6.03;;
12601;SDS011;30282;16.436;99.370;2023-07-30T04:37:55;11.70;;;5.73;;
12601;SDS011;30282;16.436;99.370;2023-07-30T04:40:27;11.23;;;5.53;;
12601;SDS011;30282;16.436;99.370;2023-07-30T04:42:57;15.73;;;8.00;;
12601;SDS011;30282;16.436;99.370;2023-07-30T04:45:26;6.53;;;3.60;;
12601;SDS011;30282;16.436;99.370;2023-07-30T04:47:55;10.73;;;4.57;;
12601;SDS011;30282;16.436;99.370;2023-07-30T04:50:24;10.23;;;4.90;;
12601;SDS011;30282;16.436;99.370;2023-07-30T04:52:54;38.40;;;1.80;;
12601;SDS011;30282;16.436;99.370;2023-07-30T04:55:24;9.07;;;3.10;;
12601;SDS011;30282;16.436;99.370;2023-07-30T04:57:54;4.40;;;0.80;;
12601;SDS011;30282;16.436;99.370;2023-07-30T05:00:23;5.70;;;2.17;;
12601;SDS011;30282;16.436;99.370;2023-07-30T05:02:52;4.20;;;0.60;;
12601;SDS011;30282;16.436;99.370;2023-07-30T05:05:21;10.03;;;0.83;;
12601;SDS011;30282;16.436;99.370;2023-07-30T05:07:50;15.87;;;1.67;;
12601;SDS011;30282;16.436;99.370;2023-07-30T05:10:19;15.63;;;1.23;;
12601;SDS011;30282;16.436;99.370;2023-07-30T05:12:50;2.30;;;0.60;;
12601;SDS011;30282;16.436;99.370;2023-07-30T05:15:22;7.80;;;1.03;;
12601;SDS011;30282;16.436;99.370;2023-07-30T05:17:53;11.23;;;2.00;;
12601;SDS011;30282;16.436;99.370;2023-07-30T05:20:22;7.53;;;1.30;;
12601;SDS011;30282;16.436;99.370;2023-07-30T05:22:51;2.47;;;0.60;;
12601;SDS011;30282;16.436;99.370;2023-07-30T05:25:20;2.73;;;0.57;;
12601;SDS011;30282;16.436;99.370;2023-07-30T05:27:51;4.27;;;1.00;;
12601;SDS011;30282;16.436;99.370;2023-07-30T05:30:20;6.37;;;0.87;;
12601;SDS011;30282;16.436;99.370;2023-07-30T05:32:50;9.47;;;2.70;;
12601;SDS011;30282;16.436;99.370;2023-07-30T05:35:19;11.90;;;2.50;;
12601;SDS011;30282;16.436;99.370;2023-07-30T05:37:48;5.80;;;1.57;;
12601;SDS011;30282;16.436;99.370;2023-07-30T05:40:18;12.40;;;1.87;;
12601;SDS011;30282;16.436;99.370;2023-07-30T05:42:57;5.80;;;1.87;;
12601;SDS011;30282;16.436;99.370;2023-07-30T05:45:37;4.57;;;1.43;;
12601;SDS011;30282;16.436;99.370;2023-07-30T05:48:08;8.13;;;1.97;;
12601;SDS011;30282;16.436;99.370;2023-07-30T05:50:37;3.73;;;1.43;;
12601;SDS011;30282;16.436;99.370;2023-07-30T05:53:06;4.57;;;1.33;;
12601;SDS011;30282;16.436;99.370;2023-07-30T05:55:35;4.10;;;1.60;;
12601;SDS011;30282;16.436;99.370;2023-07-30T05:58:08;7.57;;;1.93;;
12601;SDS011;30282;16.436;99.370;2023-07-30T06:00:45;7.30;;;2.30;;
12601;SDS011;30282;16.436;99.370;2023-07-30T06:03:15;6.00;;;2.17;;
12601;SDS011;30282;16.436;99.370;2023-07-30T06:05:44;5.70;;;2.23;;
12601;SDS011;30282;16.436;99.370;2023-07-30T06:08:16;8.17;;;3.40;;
12601;SDS011;30282;16.436;99.370;2023-07-30T06:10:45;7.60;;;3.07;;
12601;SDS011;30282;16.436;99.370;2023-07-30T06:13:16;28.97;;;18.73;;
12601;SDS011;30282;16.436;99.370;2023-07-30T06:15:46;9.90;;;4.27;;
12601;SDS011;30282;16.436;99.370;2023-07-30T06:18:21;7.07;;;3.67;;
12601;SDS011;30282;16.436;99.370;2023-07-30T06:20:50;6.50;;;3.40;;
12601;SDS011;30282;16.436;99.370;2023-07-30T06:23:19;10.13;;;2.97;;
12601;SDS011;30282;16.436;99.370;2023-07-30T06:25:49;5.60;;;2.30;;
12601;SDS011;30282;16.436;99.370;2023-07-30T06:28:28;9.43;;;3.37;;
12601;SDS011;30282;16.436;99.370;2023-07-30T06:30:59;7.00;;;2.70;;
12601;SDS011;30282;16.436;99.370;2023-07-30T06:33:37;7.07;;;2.80;;
12601;SDS011;30282;16.436;99.370;2023-07-30T06:36:06;4.63;;;2.67;;
12601;SDS011;30282;16.436;99.370;2023-07-30T06:38:38;5.07;;;2.60;;
12601;SDS011;30282;16.436;99.370;2023-07-30T06:41:07;5.40;;;2.20;;
12601;SDS011;30282;16.436;99.370;2023-07-30T06:43:40;5.23;;;2.50;;
12601;SDS011;30282;16.436;99.370;2023-07-30T06:46:09;5.70;;;2.40;;
12601;SDS011;30282;16.436;99.370;2023-07-30T06:48:39;5.77;;;2.57;;
12601;SDS011;30282;16.436;99.370;2023-07-30T06:51:09;6.43;;;2.60;;
12601;SDS011;30282;16.436;99.370;2023-07-30T06:53:38;6.73;;;2.60;;
12601;SDS011;30282;16.436;99.370;2023-07-30T06:56:07;9.87;;;2.97;;
12601;SDS011;30282;16.436;99.370;2023-07-30T06:58:36;6.47;;;2.73;;
12601;SDS011;30282;16.436;99.370;2023-07-30T07:01:07;7.30;;;2.67;;
12601;SDS011;30282;16.436;99.370;2023-07-30T07:03:36;4.90;;;3.00;;
12601;SDS011;30282;16.436;99.370;2023-07-30T07:06:05;9.70;;;3.97;;
12601;SDS011;30282;16.436;99.370;2023-07-30T07:08:34;5.70;;;3.30;;
12601;SDS011;30282;16.436;99.370;2023-07-30T07:11:03;8.40;;;4.07;;
12601;SDS011;30282;16.436;99.370;2023-07-30T07:13:32;6.20;;;3.07;;
12601;SDS011;30282;16.436;99.370;2023-07-30T07:16:01;7.10;;;2.30;;
12601;SDS011;30282;16.436;99.370;2023-07-30T07:18:32;7.50;;;3.37;;
12601;SDS011;30282;16.436;99.370;2023-07-30T07:21:02;5.90;;;2.50;;
12601;SDS011;30282;16.436;99.370;2023-07-30T07:23:31;4.43;;;2.10;;
12601;SDS011;30282;16.436;99.370;2023-07-30T07:26:00;4.90;;;2.20;;
12601;SDS011;30282;16.436;99.370;2023-07-30T07:28:29;7.77;;;4.37;;
12601;SDS011;30282;16.436;99.370;2023-07-30T07:30:58;9.40;;;3.67;;
12601;SDS011;30282;16.436;99.370;2023-07-30T07:33:27;7.57;;;3.37;;
12601;SDS011;30282;16.436;99.370;2023-07-30T07:36:05;5.77;;;2.60;;
12601;SDS011;30282;16.436;99.370;2023-07-30T07:38:34;6.73;;;3.10;;
12601;SDS011;30282;16.436;99.370;2023-07-30T07:41:04;5.13;;;2.30;;
12601;SDS011;30282;16.436;99.370;2023-07-30T07:43:33;6.33;;;2.77;;
12601;SDS011;30282;16.436;99.370;2023-07-30T07:46:02;6.10;;;3.00;;
12601;SDS011;30282;16.436;99.370;2023-07-30T07:48:35;7.50;;;2.93;;
12601;SDS011;30282;16.436;99.370;2023-07-30T07:51:06;6.37;;;2.80;;
12601;SDS011;30282;16.436;99.370;2023-07-30T07:53:36;7.60;;;2.70;;
12601;SDS011;30282;16.436;99.370;2023-07-30T07:56:05;5.37;;;2.80;;
12601;SDS011;30282;16.436;99.370;2023-07-30T07:58:34;5.63;;;2.63;;
12601;SDS011;30282;16.436;99.370;2023-07-30T08:01:03;5.93;;;2.83;;
12601;SDS011;30282;16.436;99.370;2023-07-30T08:03:33;10.10;;;2.50;;
12601;SDS011;30282;16.436;99.370;2023-07-30T08:06:02;7.20;;;2.67;;
12601;SDS011;30282;16.436;99.370;2023-07-30T08:08:33;6.40;;;3.07;;
12601;SDS011;30282;16.436;99.370;2023-07-30T08:11:05;8.07;;;2.87;;
12601;SDS011;30282;16.436;99.370;2023-07-30T08:13:34;18.10;;;5.07;;
12601;SDS011;30282;16.436;99.370;2023-07-30T08:16:04;7.00;;;3.50;;
12601;SDS011;30282;16.436;99.370;2023-07-30T08:18:34;5.83;;;2.80;;
12601;SDS011;30282;16.436;99.370;2023-07-30T08:21:03;5.20;;;2.37;;
12601;SDS011;30282;16.436;99.370;2023-07-30T08:23:33;10.10;;;3.03;;
12601;SDS011;30282;16.436;99.370;2023-07-30T08:26:02;17.30;;;2.90;;
12601;SDS011;30282;16.436;99.370;2023-07-30T08:28:32;6.40;;;2.63;;
12601;SDS011;30282;16.436;99.370;2023-07-30T08:31:01;7.87;;;2.60;;
12601;SDS011;30282;16.436;99.370;2023-07-30T08:33:30;7.80;;;2.70;;
12601;SDS011;30282;16.436;99.370;2023-07-30T08:35:59;9.10;;;2.63;;
12601;SDS011;30282;16.436;99.370;2023-07-30T08:38:29;9.83;;;2.50;;
12601;SDS011;30282;16.436;99.370;2023-07-30T08:41:00;8.87;;;2.00;;
12601;SDS011;30282;16.436;99.370;2023-07-30T08:43:29;6.50;;;2.43;;
12601;SDS011;30282;16.436;99.370;2023-07-30T08:45:59;8.93;;;2.03;;
12601;SDS011;30282;16.436;99.370;2023-07-30T08:48:28;7.17;;;2.27;;
12601;SDS011;30282;16.436;99.370;2023-07-30T08:50:58;5.10;;;2.10;;
12601;SDS011;30282;16.436;99.370;2023-07-30T08:53:29;9.73;;;3.00;;
12601;SDS011;30282;16.436;99.370;2023-07-30T08:56:00;4.50;;;2.13;;
12601;SDS011;30282;16.436;99.370;2023-07-30T08:58:31;10.10;;;2.47;;
12601;SDS011;30282;16.436;99.370;2023-07-30T09:01:02;12.20;;;2.40;;
12601;SDS011;30282;16.436;99.370;2023-07-30T09:03:37;8.83;;;2.43;;
12601;SDS011;30282;16.436;99.370;2023-07-30T09:06:07;36.10;;;13.73;;
12601;SDS011;30282;16.436;99.370;2023-07-30T09:08:36;7.77;;;2.80;;
12601;SDS011;30282;16.436;99.370;2023-07-30T09:11:10;13.93;;;2.90;;
12601;SDS011;30282;16.436;99.370;2023-07-30T09:13:40;4.53;;;1.80;;
12601;SDS011;30282;16.436;99.370;2023-07-30T09:16:10;6.40;;;2.53;;
12601;SDS011;30282;16.436;99.370;2023-07-30T09:18:40;5.50;;;2.20;;
12601;SDS011;30282;16.436;99.370;2023-07-30T09:21:10;8.37;;;2.70;;
12601;SDS011;30282;16.436;99.370;2023-07-30T09:23:40;5.80;;;2.20;;
12601;SDS011;30282;16.436;99.370;2023-07-30T09:26:11;11.83;;;2.10;;
12601;SDS011;30282;16.436;99.370;2023-07-30T09:28:41;6.53;;;2.23;;
12601;SDS011;30282;16.436;99.370;2023-07-30T09:31:10;7.43;;;2.57;;
12601;SDS011;30282;16.436;99.370;2023-07-30T09:33:40;6.47;;;2.60;;
12601;SDS011;30282;16.436;99.370;2023-07-30T09:36:09;15.70;;;2.83;;
12601;SDS011;30282;16.436;99.370;2023-07-30T09:38:39;8.27;;;2.30;;
12601;SDS011;30282;16.436;99.370;2023-07-30T09:41:10;6.00;;;1.93;;
12601;SDS011;30282;16.436;99.370;2023-07-30T09:43:42;5.20;;;1.90;;
12601;SDS011;30282;16.436;99.370;2023-07-30T09:46:11;12.80;;;4.57;;
12601;SDS011;30282;16.436;99.370;2023-07-30T09:48:40;18.07;;;7.47;;
12601;SDS011;30282;16.436;99.370;2023-07-30T09:51:09;13.87;;;4.43;;
12601;SDS011;30282;16.436;99.370;2023-07-30T09:53:39;5.70;;;2.60;;
12601;SDS011;30282;16.436;99.370;2023-07-30T09:56:08;9.83;;;2.00;;
12601;SDS011;30282;16.436;99.370;2023-07-30T09:58:39;22.40;;;9.33;;
12601;SDS011;30282;16.436;99.370;2023-07-30T10:01:08;16.13;;;7.53;;
12601;SDS011;30282;16.436;99.370;2023-07-30T10:03:37;6.43;;;2.60;;
12601;SDS011;30282;16.436;99.370;2023-07-30T10:06:07;8.63;;;2.87;;
12601;SDS011;30282;16.436;99.370;2023-07-30T10:08:38;8.90;;;2.33;;
12601;SDS011;30282;16.436;99.370;2023-07-30T10:11:08;5.10;;;1.97;;
12601;SDS011;30282;16.436;99.370;2023-07-30T10:13:40;6.67;;;1.90;;
12601;SDS011;30282;16.436;99.370;2023-07-30T10:16:10;11.17;;;2.07;;
12601;SDS011;30282;16.436;99.370;2023-07-30T10:18:39;7.97;;;2.50;;
12601;SDS011;30282;16.436;99.370;2023-07-30T10:21:10;9.60;;;3.03;;
12601;SDS011;30282;16.436;99.370;2023-07-30T10:23:57;14.23;;;3.00;;
12601;SDS011;30282;16.436;99.370;2023-07-30T10:26:27;12.97;;;3.27;;
12601;SDS011;30282;16.436;99.370;2023-07-30T10:29:17;14.67;;;3.17;;
12601;SDS011;30282;16.436;99.370;2023-07-30T10:31:53;9.13;;;2.70;;
12601;SDS011;30282;16.436;99.370;2023-07-30T10:34:25;14.30;;;3.33;;
12601;SDS011;30282;16.436;99.370;2023-07-30T10:36:55;10.43;;;2.90;;
12601;SDS011;30282;16.436;99.370;2023-07-30T10:39:26;15.20;;;4.00;;
12601;SDS011;30282;16.436;99.370;2023-07-30T10:41:56;12.70;;;4.97;;
12601;SDS011;30282;16.436;99.370;2023-07-30T10:44:28;16.30;;;3.40;;
12601;SDS011;30282;16.436;99.370;2023-07-30T10:46:59;14.17;;;4.20;;
12601;SDS011;30282;16.436;99.370;2023-07-30T10:49:30;36.93;;;4.60;;
12601;SDS011;30282;16.436;99.370;2023-07-30T10:52:05;16.07;;;4.03;;
12601;SDS011;30282;16.436;99.370;2023-07-30T10:54:34;12.17;;;3.73;;
12601;SDS011;30282;16.436;99.370;2023-07-30T10:57:04;13.67;;;4.07;;
12601;SDS011;30282;16.436;99.370;2023-07-30T10:59:35;9.83;;;3.40;;
12601;SDS011;30282;16.436;99.370;2023-07-30T11:02:05;14.00;;;3.90;;
12601;SDS011;30282;16.436;99.370;2023-07-30T11:04:34;20.07;;;3.80;;
12601;SDS011;30282;16.436;99.370;2023-07-30T11:07:04;16.73;;;4.10;;
12601;SDS011;30282;16.436;99.370;2023-07-30T11:09:33;13.40;;;4.33;;
12601;SDS011;30282;16.436;99.370;2023-07-30T11:12:02;21.30;;;3.47;;
12601;SDS011;30282;16.436;99.370;2023-07-30T11:14:32;10.40;;;3.27;;
12601;SDS011;30282;16.436;99.370;2023-07-30T11:17:03;13.17;;;3.60;;
12601;SDS011;30282;16.436;99.370;2023-07-30T11:19:32;11.73;;;4.13;;
12601;SDS011;30282;16.436;99.370;2023-07-30T11:22:01;12.30;;;3.83;;
12601;SDS011;30282;16.436;99.370;2023-07-30T11:24:35;16.53;;;4.53;;
12601;SDS011;30282;16.436;99.370;2023-07-30T11:27:05;12.47;;;4.47;;
12601;SDS011;30282;16.436;99.370;2023-07-30T11:29:36;16.07;;;3.33;;
12601;SDS011;30282;16.436;99.370;2023-07-30T11:32:05;10.70;;;3.47;;
12601;SDS011;30282;16.436;99.370;2023-07-30T11:34:35;13.20;;;3.50;;
12601;SDS011;30282;16.436;99.370;2023-07-30T11:37:05;13.27;;;3.60;;
12601;SDS011;30282;16.436;99.370;2023-07-30T11:39:35;12.10;;;3.80;;
12601;SDS011;30282;16.436;99.370;2023-07-30T11:42:04;10.43;;;3.60;;
12601;SDS011;30282;16.436;99.370;2023-07-30T11:44:34;15.50;;;3.83;;
12601;SDS011;30282;16.436;99.370;2023-07-30T11:47:05;13.20;;;3.87;;
12601;SDS011;30282;16.436;99.370;2023-07-30T11:49:36;9.03;;;3.73;;
12601;SDS011;30282;16.436;99.370;2023-07-30T11:52:05;13.30;;;4.60;;
12601;SDS011;30282;16.436;99.370;2023-07-30T11:54:36;15.63;;;3.77;;
12601;SDS011;30282;16.436;99.370;2023-07-30T11:57:05;11.00;;;4.50;;
12601;SDS011;30282;16.436;99.370;2023-07-30T11:59:34;12.00;;;4.33;;
12601;SDS011;30282;16.436;99.370;2023-07-30T12:02:07;14.60;;;4.47;;
12601;SDS011;30282;16.436;99.370;2023-07-30T12:04:43;18.07;;;5.00;;
12601;SDS011;30282;16.436;99.370;2023-07-30T12:07:12;12.30;;;4.40;;
12601;SDS011;30282;16.436;99.370;2023-07-30T12:09:50;12.17;;;3.80;;
12601;SDS011;30282;16.436;99.370;2023-07-30T12:12:20;7.93;;;3.50;;
12601;SDS011;30282;16.436;99.370;2023-07-30T12:14:56;9.43;;;3.77;;
12601;SDS011;30282;16.436;99.370;2023-07-30T12:17:25;12.77;;;4.70;;
12601;SDS011;30282;16.436;99.370;2023-07-30T12:19:54;10.63;;;3.20;;
12601;SDS011;30282;16.436;99.370;2023-07-30T12:22:23;10.43;;;3.57;;
12601;SDS011;30282;16.436;99.370;2023-07-30T12:24:52;20.20;;;3.63;;
12601;SDS011;30282;16.436;99.370;2023-07-30T12:27:21;22.00;;;4.60;;
12601;SDS011;30282;16.436;99.370;2023-07-30T12:29:50;19.93;;;4.70;;
12601;SDS011;30282;16.436;99.370;2023-07-30T12:32:24;10.10;;;3.70;;
12601;SDS011;30282;16.436;99.370;2023-07-30T12:34:54;12.57;;;4.03;;
12601;SDS011;30282;16.436;99.370;2023-07-30T12:37:23;14.87;;;5.30;;
12601;SDS011;30282;16.436;99.370;2023-07-30T12:39:52;11.83;;;4.50;;
12601;SDS011;30282;16.436;99.370;2023-07-30T12:42:21;13.63;;;4.10;;
12601;SDS011;30282;16.436;99.370;2023-07-30T12:44:50;12.27;;;4.63;;
12601;SDS011;30282;16.436;99.370;2023-07-30T12:47:20;10.63;;;4.77;;
12601;SDS011;30282;16.436;99.370;2023-07-30T12:49:53;13.80;;;4.33;;
12601;SDS011;30282;16.436;99.370;2023-07-30T12:52:23;12.40;;;4.17;;
12601;SDS011;30282;16.436;99.370;2023-07-30T12:54:52;19.43;;;4.20;;
12601;SDS011;30282;16.436;99.370;2023-07-30T12:57:24;14.63;;;4.70;;
12601;SDS011;30282;16.436;99.370;2023-07-30T12:59:53;9.93;;;4.20;;
12601;SDS011;30282;16.436;99.370;2023-07-30T13:02:23;16.93;;;4.07;;
12601;SDS011;30282;16.436;99.370;2023-07-30T13:05:00;11.87;;;5.40;;
12601;SDS011;30282;16.436;99.370;2023-07-30T13:07:31;15.37;;;4.70;;
12601;SDS011;30282;16.436;99.370;2023-07-30T13:10:04;11.50;;;3.80;;
12601;SDS011;30282;16.436;99.370;2023-07-30T13:12:34;17.40;;;4.60;;
12601;SDS011;30282;16.436;99.370;2023-07-30T13:15:05;13.83;;;6.50;;
12601;SDS011;30282;16.436;99.370;2023-07-30T13:17:34;24.70;;;11.90;;
12601;SDS011;30282;16.436;99.370;2023-07-30T13:20:07;26.30;;;13.77;;
12601;SDS011;30282;16.436;99.370;2023-07-30T13:22:39;19.53;;;10.43;;
12601;SDS011;30282;16.436;99.370;2023-07-30T13:25:11;16.80;;;8.90;;
12601;SDS011;30282;16.436;99.370;2023-07-30T13:27:42;23.40;;;8.40;;
12601;SDS011;30282;16.436;99.370;2023-07-30T13:30:12;15.90;;;8.50;;
12601;SDS011;30282;16.436;99.370;2023-07-30T13:32:41;21.00;;;8.53;;
12601;SDS011;30282;16.436;99.370;2023-07-30T13:35:11;22.50;;;10.83;;
12601;SDS011;30282;16.436;99.370;2023-07-30T13:37:40;32.30;;;16.13;;
12601;SDS011;30282;16.436;99.370;2023-07-30T13:40:10;27.13;;;12.13;;
12601;SDS011;30282;16.436;99.370;2023-07-30T13:42:39;25.40;;;11.90;;
12601;SDS011;30282;16.436;99.370;2023-07-30T13:45:11;12.63;;;5.30;;
12601;SDS011;30282;16.436;99.370;2023-07-30T13:47:40;17.10;;;6.10;;
12601;SDS011;30282;16.436;99.370;2023-07-30T13:50:15;16.40;;;5.10;;
12601;SDS011;30282;16.436;99.370;2023-07-30T13:52:44;15.23;;;5.40;;
12601;SDS011;30282;16.436;99.370;2023-07-30T13:55:14;16.00;;;4.87;;
12601;SDS011;30282;16.436;99.370;2023-07-30T13:57:43;14.03;;;4.60;;
12601;SDS011;30282;16.436;99.370;2023-07-30T14:00:13;14.40;;;4.70;;
12601;SDS011;30282;16.436;99.370;2023-07-30T14:02:42;8.43;;;3.53;;
12601;SDS011;30282;16.436;99.370;2023-07-30T14:05:13;18.50;;;3.97;;
12601;SDS011;30282;16.436;99.370;2023-07-30T14:07:42;27.00;;;4.90;;
12601;SDS011;30282;16.436;99.370;2023-07-30T14:10:11;11.87;;;3.90;;
12601;SDS011;30282;16.436;99.370;2023-07-30T14:12:41;10.83;;;3.97;;
12601;SDS011;30282;16.436;99.370;2023-07-30T14:15:12;12.37;;;3.77;;
12601;SDS011;30282;16.436;99.370;2023-07-30T14:17:42;11.30;;;4.13;;
12601;SDS011;30282;16.436;99.370;2023-07-30T14:20:11;12.70;;;3.73;;
12601;SDS011;30282;16.436;99.370;2023-07-30T14:22:44;17.00;;;4.37;;
12601;SDS011;30282;16.436;99.370;2023-07-30T14:25:15;16.50;;;3.90;;
12601;SDS011;30282;16.436;99.370;2023-07-30T14:27:44;10.57;;;4.30;;
12601;SDS011;30282;16.436;99.370;2023-07-30T14:30:13;14.80;;;4.30;;
12601;SDS011;30282;16.436;99.370;2023-07-30T14:32:42;24.03;;;5.70;;
12601;SDS011;30282;16.436;99.370;2023-07-30T14:35:13;12.33;;;4.53;;
12601;SDS011;30282;16.436;99.370;2023-07-30T14:37:42;9.90;;;3.83;;
12601;SDS011;30282;16.436;99.370;2023-07-30T14:40:11;13.13;;;4.40;;
12601;SDS011;30282;16.436;99.370;2023-07-30T14:42:40;11.57;;;4.63;;